createdAt,value
2018-12-18T00:01:49.344Z,2.62
2018-12-18T00:04:53.577Z,2.62
2018-12-18T00:07:57.823Z,2.62
2018-12-18T00:11:03.298Z,2.61
2018-12-18T00:14:07.534Z,2.60
2018-12-18T00:17:11.772Z,2.60
2018-12-18T00:20:16.028Z,2.61
2018-12-18T00:23:20.243Z,2.61
2018-12-18T00:26:24.628Z,2.62
2018-12-18T00:29:28.818Z,2.61
2018-12-18T00:32:33.027Z,2.64
2018-12-18T00:35:37.239Z,2.64
2018-12-18T00:38:41.447Z,2.65
2018-12-18T00:41:45.845Z,2.66
2018-12-18T00:44:50.028Z,2.68
2018-12-18T00:47:54.251Z,2.68
2018-12-18T00:50:58.464Z,2.69
2018-12-18T00:54:02.742Z,2.67
2018-12-18T00:57:06.953Z,2.66
2018-12-18T01:00:11.516Z,2.68
2018-12-18T01:03:15.727Z,2.67
2018-12-18T01:06:20.108Z,2.69
2018-12-18T01:09:24.461Z,2.71
2018-12-18T01:12:28.750Z,2.72
2018-12-18T01:15:32.968Z,2.74
2018-12-18T01:18:37.215Z,2.76
2018-12-18T01:21:41.432Z,2.80
2018-12-18T01:24:45.696Z,2.79
2018-12-18T01:27:49.907Z,2.78
2018-12-18T01:30:55.040Z,2.78
2018-12-18T01:33:59.531Z,2.78
2018-12-18T01:37:03.864Z,2.77
2018-12-18T01:40:08.245Z,2.76
2018-12-18T01:43:12.528Z,2.78
2018-12-18T01:46:16.767Z,2.78
2018-12-18T01:49:20.999Z,2.81
2018-12-18T01:52:25.236Z,2.81
2018-12-18T01:55:29.579Z,2.83
2018-12-18T01:58:33.799Z,2.84
2018-12-18T02:01:38.017Z,2.85
2018-12-18T02:04:42.231Z,2.85
2018-12-18T02:07:46.494Z,2.86
2018-12-18T02:10:50.723Z,2.87
2018-12-18T02:13:55.015Z,2.87
2018-12-18T02:16:59.283Z,2.88
2018-12-18T02:20:03.927Z,2.89
2018-12-18T02:23:08.248Z,2.90
2018-12-18T02:26:12.565Z,2.91
2018-12-18T02:29:16.815Z,2.94
2018-12-18T02:32:21.214Z,2.95
2018-12-18T02:35:25.505Z,2.95
2018-12-18T02:38:29.717Z,2.95
2018-12-18T02:41:34.108Z,2.97
2018-12-18T02:44:38.331Z,2.99
2018-12-18T02:47:42.551Z,3.00
2018-12-18T02:50:46.900Z,3.01
2018-12-18T02:53:51.219Z,3.01
2018-12-18T02:56:55.427Z,3.04
2018-12-18T02:59:59.664Z,3.05
2018-12-18T03:03:03.953Z,3.06
2018-12-18T03:06:08.297Z,3.07
2018-12-18T03:09:12.547Z,3.07
2018-12-18T03:12:16.784Z,3.08
2018-12-18T03:15:21.364Z,3.10
2018-12-18T03:18:25.605Z,3.09
2018-12-18T03:21:29.824Z,3.11
2018-12-18T03:24:34.121Z,3.11
2018-12-18T03:27:38.430Z,3.11
2018-12-18T03:30:42.657Z,3.13
2018-12-18T03:33:46.900Z,3.12
2018-12-18T03:36:51.159Z,3.12
2018-12-18T03:39:55.508Z,3.12
2018-12-18T03:42:59.805Z,3.12
2018-12-18T03:46:04.099Z,3.14
2018-12-18T03:49:08.439Z,3.15
2018-12-18T03:52:12.663Z,3.16
2018-12-18T03:55:16.892Z,3.17
2018-12-18T03:58:21.106Z,3.20
2018-12-18T04:01:25.349Z,3.20
2018-12-18T04:04:35.524Z,3.22
2018-12-18T04:07:36.427Z,3.23
2018-12-18T04:10:40.742Z,3.22
2018-12-18T04:13:45.023Z,3.24
2018-12-18T04:16:49.351Z,3.26
2018-12-18T04:19:53.680Z,3.27
2018-12-18T04:22:57.892Z,3.28
2018-12-18T04:26:02.186Z,3.30
2018-12-18T04:29:06.400Z,3.30
2018-12-18T04:32:10.651Z,3.31
2018-12-18T04:35:14.936Z,3.33
2018-12-18T04:38:19.178Z,3.35
2018-12-18T04:41:23.421Z,3.36
2018-12-18T04:44:27.615Z,3.36
2018-12-18T04:47:31.939Z,3.38
2018-12-18T04:50:36.120Z,3.40
2018-12-18T04:53:40.396Z,3.41
2018-12-18T04:56:44.578Z,3.43
2018-12-18T04:59:48.866Z,3.45
2018-12-18T05:02:53.086Z,3.46
2018-12-18T05:05:57.523Z,3.49
2018-12-18T05:09:01.858Z,3.49
2018-12-18T05:12:06.287Z,3.52
2018-12-18T05:15:10.639Z,3.51
2018-12-18T05:18:14.932Z,3.53
2018-12-18T05:21:19.226Z,3.55
2018-12-18T05:24:23.537Z,3.56
2018-12-18T05:27:27.739Z,3.61
2018-12-18T05:30:32.006Z,3.68
2018-12-18T05:33:36.256Z,3.69
2018-12-18T05:36:40.684Z,3.68
2018-12-18T05:39:44.900Z,3.70
2018-12-18T05:42:49.124Z,3.72
2018-12-18T05:45:53.382Z,3.72
2018-12-18T05:48:57.620Z,3.74
2018-12-18T05:52:01.839Z,3.77
2018-12-18T05:55:07.701Z,3.77
2018-12-18T05:58:12.120Z,3.79
2018-12-18T06:01:16.331Z,3.83
2018-12-18T06:04:20.571Z,3.88
2018-12-18T06:07:24.911Z,3.96
2018-12-18T06:10:29.187Z,4.00
2018-12-18T06:13:33.390Z,4.07
2018-12-18T06:16:37.639Z,4.23
2018-12-18T06:19:41.841Z,4.40
2018-12-18T06:22:46.078Z,4.53
2018-12-18T06:25:50.352Z,4.66
2018-12-18T06:28:54.566Z,4.74
2018-12-18T06:31:58.764Z,4.83
2018-12-18T06:35:10.055Z,4.84
2018-12-18T06:38:09.308Z,4.86
2018-12-18T06:41:13.601Z,4.89
2018-12-18T06:44:17.879Z,4.87
2018-12-18T06:47:22.088Z,4.90
2018-12-18T06:50:26.287Z,4.95
2018-12-18T06:53:30.559Z,4.98
2018-12-18T06:56:34.906Z,5.09
2018-12-18T06:59:39.198Z,5.16
2018-12-18T07:02:43.482Z,5.17
2018-12-18T07:05:47.701Z,5.18
2018-12-18T07:08:51.930Z,5.16
2018-12-18T07:11:56.137Z,5.13
2018-12-18T07:15:00.424Z,5.16
2018-12-18T07:18:04.708Z,5.11
2018-12-18T07:21:08.958Z,5.12
2018-12-18T07:24:14.186Z,5.10
2018-12-18T07:27:18.827Z,5.08
2018-12-18T07:30:23.132Z,5.08
2018-12-18T07:33:27.512Z,5.05
2018-12-18T07:36:31.884Z,5.05
2018-12-18T07:39:36.131Z,5.01
2018-12-18T07:42:40.355Z,4.99
2018-12-18T07:45:44.586Z,5.01
2018-12-18T07:48:48.786Z,4.97
2018-12-18T07:51:53.090Z,4.95
2018-12-18T07:54:57.415Z,4.93
2018-12-18T07:58:01.637Z,4.93
2018-12-18T08:01:05.887Z,4.90
2018-12-18T08:04:10.241Z,4.89
2018-12-18T08:07:14.487Z,4.86
2018-12-18T08:10:18.844Z,4.84
2018-12-18T08:13:23.201Z,4.80
2018-12-18T08:16:27.427Z,4.79
2018-12-18T08:19:31.671Z,4.78
2018-12-18T08:22:35.982Z,4.78
2018-12-18T08:25:40.289Z,4.76
2018-12-18T08:28:44.672Z,4.76
2018-12-18T08:31:48.883Z,4.77
2018-12-18T08:34:53.248Z,4.78
2018-12-18T08:37:57.547Z,4.75
2018-12-18T08:41:01.773Z,4.75
2018-12-18T08:44:06.079Z,4.77
2018-12-18T08:47:10.302Z,4.78
2018-12-18T08:50:14.592Z,4.78
2018-12-18T08:53:18.799Z,4.79
2018-12-18T08:56:23.264Z,4.85
2018-12-18T08:59:27.472Z,4.89
2018-12-18T09:02:31.769Z,4.92
2018-12-18T09:05:36.095Z,4.95
2018-12-18T09:08:40.335Z,4.94
2018-12-18T09:11:44.644Z,4.96
2018-12-18T09:14:54.255Z,4.99
2018-12-18T09:17:58.583Z,5.01
2018-12-18T09:21:02.875Z,5.03
2018-12-18T09:24:07.149Z,5.04
2018-12-18T09:27:11.516Z,5.05
2018-12-18T09:30:15.861Z,5.07
2018-12-18T09:33:20.093Z,5.10
2018-12-18T09:36:24.408Z,5.13
2018-12-18T09:39:33.816Z,5.15
2018-12-18T09:42:43.238Z,5.18
2018-12-18T09:45:47.447Z,5.20
2018-12-18T09:48:51.671Z,5.21
2018-12-18T09:51:55.924Z,5.21
2018-12-18T09:55:00.112Z,5.23
2018-12-18T09:58:08.502Z,5.24
2018-12-18T10:01:12.963Z,5.23
2018-12-18T10:04:17.241Z,5.25
2018-12-18T10:07:21.643Z,5.26
2018-12-18T10:10:25.879Z,5.28
2018-12-18T10:13:30.168Z,5.27
2018-12-18T10:16:34.480Z,5.29
2018-12-18T10:19:38.818Z,5.28
2018-12-18T10:22:43.115Z,5.27
2018-12-18T10:25:47.423Z,5.26
2018-12-18T10:28:51.709Z,5.29
2018-12-18T10:31:55.942Z,5.27
2018-12-18T10:35:00.178Z,5.23
2018-12-18T10:38:11.151Z,5.21
2018-12-18T10:41:15.440Z,5.19
2018-12-18T10:44:19.663Z,5.17
2018-12-18T10:47:23.945Z,5.15
2018-12-18T10:50:28.155Z,5.15
2018-12-18T10:53:32.376Z,5.13
2018-12-18T10:56:36.682Z,5.11
2018-12-18T10:59:41.007Z,5.11
2018-12-18T11:02:45.585Z,5.12
2018-12-18T11:05:49.783Z,5.10
2018-12-18T11:08:54.082Z,5.13
2018-12-18T11:11:58.371Z,5.12
2018-12-18T11:15:02.682Z,5.14
2018-12-18T11:18:06.970Z,5.15
2018-12-18T11:21:11.340Z,5.16
2018-12-18T11:24:15.747Z,5.15
2018-12-18T11:27:20.119Z,5.15
2018-12-18T11:30:24.342Z,5.15
2018-12-18T11:33:28.544Z,5.17
2018-12-18T11:36:32.783Z,5.19
2018-12-18T11:39:37.115Z,5.21
2018-12-18T11:42:41.363Z,5.23
2018-12-18T11:45:45.611Z,5.25
2018-12-18T11:48:49.824Z,5.26
2018-12-18T11:51:54.055Z,5.28
2018-12-18T11:54:58.292Z,5.29
2018-12-18T11:58:02.498Z,5.31
2018-12-18T12:01:07.281Z,5.31
2018-12-18T12:04:11.511Z,5.32
2018-12-18T12:07:15.750Z,5.33
2018-12-18T12:10:20.023Z,5.34
2018-12-18T12:13:24.339Z,5.35
2018-12-18T12:16:28.591Z,5.33
2018-12-18T12:19:32.847Z,5.35
2018-12-18T12:22:37.205Z,5.36
2018-12-18T12:25:41.434Z,5.36
2018-12-18T12:28:45.745Z,5.37
2018-12-18T12:31:49.949Z,5.36
2018-12-18T12:34:54.247Z,5.38
2018-12-18T12:37:58.456Z,5.39
2018-12-18T12:41:02.739Z,5.40
2018-12-18T12:44:06.957Z,5.43
2018-12-18T12:47:17.523Z,5.44
2018-12-18T12:50:21.903Z,5.45
2018-12-18T12:53:26.207Z,5.47
2018-12-18T12:56:30.443Z,5.49
2018-12-18T12:59:34.660Z,5.50
2018-12-18T13:02:38.888Z,5.51
2018-12-18T13:05:43.226Z,5.53
2018-12-18T13:08:47.532Z,5.55
2018-12-18T13:11:51.836Z,5.56
2018-12-18T13:14:56.054Z,5.57
2018-12-18T13:18:00.297Z,5.57
2018-12-18T13:21:04.675Z,5.57
2018-12-18T13:24:08.900Z,5.56
2018-12-18T13:27:13.290Z,5.55
2018-12-18T13:30:17.578Z,5.59
2018-12-18T13:33:21.824Z,5.60
2018-12-18T13:36:26.346Z,5.62
2018-12-18T13:39:30.635Z,5.63
2018-12-18T13:42:35.092Z,5.63
2018-12-18T13:45:39.309Z,5.64
2018-12-18T13:48:43.549Z,5.64
2018-12-18T13:51:47.775Z,5.64
2018-12-18T13:54:52.228Z,5.65
2018-12-18T13:57:56.462Z,5.64
2018-12-18T14:01:00.718Z,5.64
2018-12-18T14:04:05.094Z,5.64
2018-12-18T14:07:09.331Z,5.64
2018-12-18T14:10:13.635Z,5.61
2018-12-18T14:13:17.855Z,5.61
2018-12-18T14:16:22.189Z,5.59
2018-12-18T14:19:26.419Z,5.58
2018-12-18T14:22:30.675Z,5.57
2018-12-18T14:25:34.892Z,5.57
2018-12-18T14:28:39.202Z,5.54
2018-12-18T14:31:43.436Z,5.54
2018-12-18T14:34:47.723Z,5.54
2018-12-18T14:37:52.045Z,5.54
2018-12-18T14:40:56.255Z,5.56
2018-12-18T14:44:00.483Z,5.54
2018-12-18T14:47:04.873Z,5.54
2018-12-18T14:50:09.387Z,5.54
2018-12-18T14:53:13.567Z,5.54
2018-12-18T14:56:17.840Z,5.53
2018-12-18T14:59:22.214Z,5.53
2018-12-18T15:02:26.413Z,5.51
2018-12-18T15:05:30.718Z,5.51
2018-12-18T15:08:35.075Z,5.54
2018-12-18T15:11:39.311Z,5.56
2018-12-18T15:14:43.509Z,5.58
2018-12-18T15:17:47.948Z,5.58
2018-12-18T15:20:52.166Z,5.58
2018-12-18T15:23:56.363Z,5.59
2018-12-18T15:27:00.726Z,5.61
2018-12-18T15:30:06.088Z,5.63
2018-12-18T15:33:10.411Z,5.64
2018-12-18T15:36:14.639Z,5.66
2018-12-18T15:39:18.851Z,5.68
2018-12-18T15:42:23.160Z,5.70
2018-12-18T15:45:27.367Z,5.70
2018-12-18T15:48:31.604Z,5.71
2018-12-18T15:51:35.938Z,5.71
2018-12-18T15:54:40.266Z,5.73
2018-12-18T15:57:44.517Z,5.73
2018-12-18T16:00:48.788Z,5.71
2018-12-18T16:03:53.106Z,5.69
2018-12-18T16:06:57.307Z,5.72
2018-12-18T16:10:01.539Z,5.72
2018-12-18T16:13:05.737Z,5.71
2018-12-18T16:20:04.563Z,5.72
2018-12-18T16:23:08.892Z,5.76
2018-12-18T16:26:13.215Z,5.75
2018-12-18T16:29:17.462Z,5.76
2018-12-18T16:32:21.889Z,5.76
2018-12-18T16:35:26.195Z,5.76
2018-12-18T16:38:30.516Z,5.74
2018-12-18T16:41:34.812Z,5.76
2018-12-18T16:44:39.023Z,5.74
2018-12-18T16:47:43.295Z,5.75
2018-12-18T16:50:47.590Z,5.76
2018-12-18T16:53:51.888Z,5.77
2018-12-18T16:56:56.162Z,5.75
2018-12-18T17:00:00.370Z,5.80
2018-12-18T17:03:04.647Z,5.78
2018-12-18T17:06:09.099Z,5.74
2018-12-18T17:09:13.324Z,5.74
2018-12-18T17:12:17.630Z,5.76
2018-12-18T17:15:21.852Z,5.76
2018-12-18T17:18:26.049Z,5.77
2018-12-18T17:21:30.292Z,5.76
2018-12-18T17:24:34.522Z,5.74
2018-12-18T17:27:38.735Z,5.76
2018-12-18T17:30:42.962Z,5.75
2018-12-18T17:33:47.179Z,5.72
2018-12-18T17:36:51.440Z,5.68
2018-12-18T17:39:56.300Z,5.68
2018-12-18T17:43:00.492Z,5.66
2018-12-18T17:46:04.907Z,5.65
2018-12-18T17:49:14.779Z,5.65
2018-12-18T17:52:19.000Z,5.65
2018-12-18T17:55:23.239Z,5.66
2018-12-18T17:58:27.468Z,5.65
2018-12-18T18:01:31.807Z,5.66
2018-12-18T18:04:36.062Z,5.65
2018-12-18T18:07:43.030Z,5.65
2018-12-18T18:10:46.644Z,5.65
2018-12-18T18:13:50.855Z,5.66
2018-12-18T18:16:55.219Z,5.67
2018-12-18T18:19:59.797Z,5.71
2018-12-18T18:23:04.044Z,5.71
2018-12-18T18:26:08.944Z,5.73
2018-12-18T18:29:13.151Z,5.73
2018-12-18T18:32:17.388Z,5.74
2018-12-18T18:35:21.746Z,5.73
2018-12-18T18:38:26.035Z,5.72
2018-12-18T18:41:30.323Z,5.70
2018-12-18T18:44:34.578Z,5.72
2018-12-18T18:47:38.954Z,5.71
2018-12-18T18:50:43.179Z,5.72
2018-12-18T18:53:47.434Z,5.73
2018-12-18T18:56:51.710Z,5.72
2018-12-18T18:59:55.962Z,5.72
2018-12-18T19:03:00.295Z,5.73
2018-12-18T19:06:04.767Z,5.73
2018-12-18T19:09:09.795Z,5.70
2018-12-18T19:12:14.039Z,5.69
2018-12-18T19:15:18.337Z,5.67
2018-12-18T19:18:22.583Z,5.69
2018-12-18T19:21:26.982Z,5.63
2018-12-18T19:24:31.199Z,5.58
2018-12-18T19:27:35.456Z,5.57
2018-12-18T19:30:39.686Z,5.57
2018-12-18T19:33:43.916Z,5.53
2018-12-18T19:36:48.306Z,5.50
2018-12-18T19:39:52.825Z,5.50
2018-12-18T19:42:57.036Z,5.51
2018-12-18T19:46:01.255Z,5.51
2018-12-18T19:49:05.648Z,5.50
2018-12-18T19:52:09.956Z,5.54
2018-12-18T19:55:14.468Z,5.53
2018-12-18T19:58:18.695Z,5.57
2018-12-18T20:01:22.940Z,5.55
2018-12-18T20:04:35.470Z,5.54
2018-12-18T20:07:39.839Z,5.54
2018-12-18T20:10:44.155Z,5.53
2018-12-18T20:13:48.377Z,5.51
2018-12-18T20:16:52.596Z,5.46
2018-12-18T20:19:56.786Z,5.42
2018-12-18T20:23:01.031Z,5.35
2018-12-18T20:26:06.307Z,5.30
2018-12-18T20:29:10.555Z,5.24
2018-12-18T20:32:14.808Z,5.19
2018-12-18T20:35:19.127Z,5.13
2018-12-18T20:38:23.368Z,5.08
2018-12-18T20:41:27.578Z,5.04
2018-12-18T20:44:31.911Z,5.00
2018-12-18T20:47:36.222Z,4.98
2018-12-18T20:50:40.423Z,4.96
2018-12-18T20:53:44.667Z,4.92
2018-12-18T20:56:48.955Z,4.88
2018-12-18T20:59:53.211Z,4.84
2018-12-18T21:02:57.422Z,4.82
2018-12-18T21:06:01.735Z,4.77
2018-12-18T21:09:09.323Z,4.75
2018-12-18T21:12:13.576Z,4.71
2018-12-18T21:15:17.811Z,4.66
2018-12-18T21:18:22.060Z,4.63
2018-12-18T21:21:26.383Z,4.60
2018-12-18T21:24:30.641Z,4.57
2018-12-18T21:27:34.875Z,4.51
2018-12-18T21:30:39.242Z,4.49
2018-12-18T21:33:43.559Z,4.46
2018-12-18T21:36:47.912Z,4.42
2018-12-18T21:39:52.120Z,4.39
2018-12-18T21:42:56.340Z,4.36
2018-12-18T21:46:00.586Z,4.31
2018-12-18T21:49:04.975Z,4.28
2018-12-18T21:52:09.180Z,4.24
2018-12-18T21:55:13.376Z,4.22
2018-12-18T21:58:17.678Z,4.22
2018-12-18T22:01:21.884Z,4.18
2018-12-18T22:04:26.104Z,4.16
2018-12-18T22:07:30.338Z,4.13
2018-12-18T22:10:34.559Z,4.12
2018-12-18T22:13:38.807Z,4.09
2018-12-18T22:16:42.995Z,4.05
2018-12-18T22:19:47.275Z,4.06
2018-12-18T22:22:51.503Z,4.03
2018-12-18T22:25:55.714Z,3.99
2018-12-18T22:28:59.911Z,3.96
2018-12-18T22:32:04.115Z,3.93
2018-12-18T22:35:08.463Z,3.93
2018-12-18T22:38:12.766Z,3.91
2018-12-18T22:41:17.062Z,3.87
2018-12-18T22:44:21.281Z,3.87
2018-12-18T22:47:25.619Z,3.85
2018-12-18T22:50:29.826Z,3.82
2018-12-18T22:53:34.209Z,3.82
2018-12-18T22:56:38.428Z,3.80
2018-12-18T22:59:42.747Z,3.77
2018-12-18T23:02:46.988Z,3.78
2018-12-18T23:05:51.273Z,3.74
2018-12-18T23:08:55.614Z,3.73
2018-12-18T23:11:59.924Z,3.69
2018-12-18T23:15:04.514Z,3.68
2018-12-18T23:18:08.767Z,3.65
2018-12-18T23:21:13.059Z,3.65
2018-12-18T23:24:17.382Z,3.63
2018-12-18T23:27:21.632Z,3.60
2018-12-18T23:30:26.009Z,3.57
2018-12-18T23:33:30.247Z,3.54
2018-12-18T23:36:34.473Z,3.49
2018-12-18T23:39:38.795Z,3.49
2018-12-18T23:42:43.022Z,3.44
2018-12-18T23:45:47.324Z,3.43
2018-12-18T23:48:51.639Z,3.42
2018-12-18T23:51:55.887Z,3.40
2018-12-18T23:55:00.103Z,3.39
2018-12-18T23:58:04.386Z,3.39
